Time;durP1;ratioP1;P1;durP2;ratioP2;P2;SDS_P1;SDS_P2;PMS_P1;PMS_P2;Temp;Humidity;BMP_temperature;BMP_pressure;BME280_temperature;BME280_humidity;BME280_pressure;Samples;Min_cycle;Max_cycle;Signal;HPM_P1;HPM_P2
2023/07/09 00:00:48;;;;;;;12.73;11.53;;;;;;;15.79;100.00;96581.69;7395937;19;20382;-90
2023/07/09 00:03:17;;;;;;;12.23;10.80;;;;;;;15.58;100.00;96569.47;7399883;19;20471;-90
2023/07/09 00:05:47;;;;;;;14.40;10.80;;;;;;;14.89;100.00;96447.88;7395661;19;20381;-90
2023/07/09 00:08:31;;;;;;;17.67;11.00;;;;;;;15.74;100.00;96537.41;7397234;19;20461;-90
2023/07/09 00:10:58;;;;;;;14.40;9.17;;;;;;;14.15;100.00;96253.69;7397243;19;20377;-90
2023/07/09 00:13:27;;;;;;;13.07;10.20;;;;;;;15.41;100.00;96430.56;7397429;19;20428;-90
2023/07/09 00:16:19;;;;;;;15.63;11.90;;;;;;;16.67;100.00;96619.78;7399825;19;20407;-92
2023/07/09 00:18:48;;;;;;;17.60;11.40;;;;;;;16.23;100.00;96608.75;7393218;19;20432;-93
2023/07/09 00:21:20;;;;;;;13.57;11.10;;;;;;;15.75;100.00;96533.59;7395071;19;20452;-92
2023/07/09 00:23:50;;;;;;;13.43;10.37;;;;;;;15.52;100.00;96490.94;7397759;19;20400;-92
2023/07/09 00:26:22;;;;;;;11.00;9.90;;;;;;;15.81;100.00;96542.09;7417810;19;20399;-92
2023/07/09 00:28:50;;;;;;;19.70;12.47;;;;;;;15.46;100.00;96528.88;7406968;19;20432;-92
2023/07/09 00:31:17;;;;;;;13.67;11.13;;;;;;;15.66;100.00;96570.41;7409563;19;20401;-92
2023/07/09 00:33:46;;;;;;;12.73;11.63;;;;;;;16.07;100.00;96616.88;7398497;19;20916;-92
2023/07/09 00:36:18;;;;;;;13.63;11.80;;;;;;;16.29;100.00;96644.66;7396005;19;20396;-92
2023/07/09 00:38:47;;;;;;;12.30;11.00;;;;;;;14.86;100.00;96457.34;7395342;19;20951;-92
2023/07/09 00:41:19;;;;;;;12.47;11.23;;;;;;;15.02;100.00;96458.03;7392966;19;20447;-93
2023/07/09 00:43:48;;;;;;;12.50;11.20;;;;;;;15.46;100.00;96508.31;7397035;19;20790;-93
2023/07/09 00:46:30;;;;;;;11.97;10.83;;;;;;;16.55;100.00;96676.78;7396359;19;20403;-93
2023/07/09 00:49:05;;;;;;;12.03;11.03;;;;;;;15.13;100.00;96500.84;7390191;19;20413;-90
2023/07/09 00:51:36;;;;;;;12.03;10.93;;;;;;;16.00;100.00;96621.28;7397200;19;20371;-90
2023/07/09 00:54:22;;;;;;;12.40;11.40;;;;;;;16.14;100.00;96638.31;7401911;19;20380;-91
2023/07/09 00:56:53;;;;;;;12.83;11.00;;;;;;;15.96;100.00;96638.00;7404180;19;20388;-91
2023/07/09 00:59:28;;;;;;;16.20;11.90;;;;;;;15.77;100.00;96640.69;7404827;19;20386;-91
2023/07/09 01:01:57;;;;;;;15.43;12.20;;;;;;;14.46;100.00;96463.72;7402643;19;20395;-92
2023/07/09 01:04:24;;;;;;;11.93;10.23;;;;;;;15.62;100.00;96602.34;7400581;19;20708;-91
2023/07/09 01:06:54;;;;;;;17.90;12.93;;;;;;;15.80;100.00;96655.22;7404204;19;20406;-91
2023/07/09 01:09:24;;;;;;;12.63;11.33;;;;;;;15.75;100.00;96650.91;7401996;19;20816;-90
2023/07/09 01:11:56;;;;;;;17.70;11.00;;;;;;;15.38;100.00;96615.91;7404177;19;20384;-91
2023/07/09 01:14:25;;;;;;;14.23;10.83;;;;;;;15.10;100.00;96584.13;7402342;19;20917;-90
2023/07/09 01:16:58;;;;;;;12.10;10.90;;;;;;;15.06;100.00;96589.34;7400877;19;20896;-90
2023/07/09 01:19:29;;;;;;;12.03;10.73;;;;;;;14.34;100.00;96479.78;7401940;19;20400;-91
2023/07/09 01:22:00;;;;;;;12.00;10.70;;;;;;;13.20;100.00;96370.00;7400780;19;20427;-91
2023/07/09 01:25:01;;;;;;;12.03;10.83;;;;;;;15.60;100.00;96667.75;7400231;19;20388;-91
2023/07/09 01:27:37;;;;;;;10.37;9.50;;;;;;;15.66;100.00;96679.69;7399467;19;20422;-90
2023/07/09 01:30:26;;;;;;;12.87;10.57;;;;;;;14.45;100.00;96498.66;7400647;19;20370;-91
2023/07/09 01:32:57;;;;;;;11.40;10.20;;;;;;;14.03;100.00;96509.06;7399343;19;20387;-91
2023/07/09 01:35:25;;;;;;;11.83;10.73;;;;;;;14.87;100.00;96609.84;7401340;19;20407;-90
2023/07/09 01:37:53;;;;;;;18.47;12.27;;;;;;;14.91;100.00;96608.03;7399311;19;20852;-91
2023/07/09 01:40:23;;;;;;;22.63;11.70;;;;;;;13.94;100.00;96477.34;7400901;19;20458;-91
2023/07/09 01:42:59;;;;;;;19.20;11.43;;;;;;;13.69;100.00;96398.91;7400719;19;20373;-91
2023/07/09 01:45:28;;;;;;;27.13;11.87;;;;;;;14.60;100.00;96611.53;7399396;19;20467;-91
2023/07/09 01:47:55;;;;;;;14.90;11.10;;;;;;;12.28;100.00;96353.13;7398378;19;20412;-90
2023/07/09 01:50:24;;;;;;;20.23;11.97;;;;;;;13.01;100.00;96452.94;7399578;19;20412;-90
2023/07/09 01:52:53;;;;;;;28.43;12.50;;;;;;;13.70;100.00;96488.91;7400860;19;20382;-91
2023/07/09 01:55:21;;;;;;;23.60;12.90;;;;;;;14.16;100.00;96580.44;7416894;19;20407;-90
2023/07/09 01:57:50;;;;;;;24.03;13.40;;;;;;;13.82;100.00;96504.78;7418014;19;20427;-90
2023/07/09 02:00:18;;;;;;;17.90;12.30;;;;;;;13.72;100.00;96494.63;7418892;19;20392;-91
2023/07/09 02:02:47;;;;;;;33.93;14.07;;;;;;;12.99;100.00;96394.13;7420483;19;20396;-91
2023/07/09 02:05:17;;;;;;;16.50;11.80;;;;;;;14.63;100.00;96603.59;7402207;19;20385;-91
2023/07/09 02:07:46;;;;;;;10.67;9.63;;;;;;;13.69;100.00;96452.03;7398017;19;20494;-91
2023/07/09 02:10:17;;;;;;;12.73;10.00;;;;;;;15.01;100.00;96636.78;7401526;19;20387;-91
2023/07/09 02:12:45;;;;;;;12.17;10.23;;;;;;;14.03;100.00;96525.78;7403201;19;20962;-91
2023/07/09 02:15:12;;;;;;;11.70;9.00;;;;;;;13.70;100.00;96461.56;7398331;19;20369;-91
2023/07/09 02:17:40;;;;;;;17.57;11.07;;;;;;;13.82;100.00;96511.97;7397957;19;20423;-91
2023/07/09 02:20:08;;;;;;;23.50;11.77;;;;;;;13.15;100.00;96415.38;7402355;19;20405;-92
2023/07/09 02:22:37;;;;;;;20.27;11.27;;;;;;;14.63;100.00;96624.91;7398930;19;20379;-91
2023/07/09 02:25:08;;;;;;;15.67;12.23;;;;;;;15.02;100.00;96683.59;7400973;19;20402;-91
2023/07/09 02:27:36;;;;;;;28.17;11.90;;;;;;;13.66;100.00;96586.34;7401834;19;20799;-91
2023/07/09 02:30:06;;;;;;;16.57;12.30;;;;;;;14.63;100.00;96666.72;7401601;19;20420;-91
2023/07/09 02:32:33;;;;;;;20.57;14.23;;;;;;;13.09;100.00;96462.66;7400170;19;20455;-91
2023/07/09 02:35:04;;;;;;;26.30;12.50;;;;;;;11.64;100.00;96266.50;7399074;19;20383;-91
2023/07/09 02:37:35;;;;;;;26.13;13.20;;;;;;;11.89;100.00;96324.78;7398656;19;20422;-90
2023/07/09 02:40:04;;;;;;;25.40;13.07;;;;;;;12.40;100.00;96344.38;7405378;19;20367;-91
2023/07/09 02:42:32;;;;;;;15.70;12.07;;;;;;;12.85;100.00;96415.75;7403415;19;20382;-91
2023/07/09 02:44:59;;;;;;;22.50;12.63;;;;;;;13.75;100.00;96527.72;7402627;19;20399;-91
2023/07/09 02:47:28;;;;;;;21.27;12.10;;;;;;;14.42;100.00;96622.50;7400168;19;20476;-91
2023/07/09 02:49:57;;;;;;;16.70;12.60;;;;;;;12.85;100.00;96412.31;7400596;19;20376;-91
2023/07/09 02:52:26;;;;;;;19.90;11.43;;;;;;;12.29;100.00;96410.38;7400929;19;20938;-91
2023/07/09 02:54:53;;;;;;;21.57;12.90;;;;;;;14.33;100.00;96700.91;7401212;19;20752;-91
2023/07/09 02:57:23;;;;;;;18.07;13.03;;;;;;;11.93;100.00;96371.44;7397155;19;20414;-91
2023/07/09 02:59:53;;;;;;;14.40;11.90;;;;;;;11.69;100.00;96291.97;7400817;19;20392;-91
2023/07/09 03:02:20;;;;;;;15.53;11.33;;;;;;;12.43;100.00;96381.63;7397048;19;20392;-91
2023/07/09 03:04:47;;;;;;;15.80;12.40;;;;;;;13.32;100.00;96498.16;7397052;19;20401;-91
2023/07/09 03:07:15;;;;;;;15.83;12.13;;;;;;;13.64;100.00;96591.25;7396444;19;20471;-91
2023/07/09 03:09:42;;;;;;;25.60;12.40;;;;;;;13.99;100.00;96681.00;7397757;19;20388;-91
2023/07/09 03:12:09;;;;;;;14.10;10.97;;;;;;;13.01;100.00;96564.41;7400424;19;20407;-91
2023/07/09 03:14:36;;;;;;;16.13;12.20;;;;;;;13.48;100.00;96680.72;7394019;19;20376;-91
2023/07/09 03:17:03;;;;;;;17.53;12.93;;;;;;;12.85;100.00;96606.03;7398852;19;20371;-91
2023/07/09 03:19:30;;;;;;;17.00;12.20;;;;;;;13.69;100.00;96670.72;7404284;19;20358;-90
2023/07/09 03:22:02;;;;;;;22.90;12.50;;;;;;;13.37;100.00;96627.31;7407112;19;20381;-91
2023/07/09 03:24:29;;;;;;;14.67;11.90;;;;;;;13.97;100.00;96684.00;7409002;19;20400;-90
2023/07/09 03:26:56;;;;;;;19.57;12.73;;;;;;;13.88;100.00;96681.47;7426039;19;20411;-91
2023/07/09 03:29:23;;;;;;;12.97;11.10;;;;;;;13.44;100.00;96629.38;7427963;19;20402;-91
2023/07/09 03:31:50;;;;;;;18.03;10.80;;;;;;;12.83;100.00;96539.25;7400270;19;20407;-91
2023/07/09 03:34:17;;;;;;;12.40;11.20;;;;;;;13.01;100.00;96610.31;7398250;19;20405;-91
2023/07/09 03:36:44;;;;;;;18.20;12.43;;;;;;;13.75;100.00;96733.13;7398300;19;20418;-91
2023/07/09 03:39:12;;;;;;;17.80;12.30;;;;;;;14.15;100.00;96735.00;7395422;19;20371;-91
2023/07/09 03:41:39;;;;;;;14.53;12.43;;;;;;;12.94;100.00;96618.06;7397874;19;20375;-91
2023/07/09 03:44:06;;;;;;;17.77;13.13;;;;;;;13.14;100.00;96632.31;7394641;19;20427;-92
2023/07/09 03:46:32;;;;;;;17.27;12.67;;;;;;;13.65;100.00;96711.59;7394936;19;20367;-92
2023/07/09 03:49:00;;;;;;;16.33;13.27;;;;;;;13.20;100.00;96635.53;7392309;19;20414;-92
2023/07/09 03:51:27;;;;;;;17.07;12.40;;;;;;;13.38;100.00;96598.88;7394161;19;20367;-92
2023/07/09 03:53:54;;;;;;;17.70;12.13;;;;;;;13.68;100.00;96655.09;7392870;19;20374;-92
2023/07/09 03:56:21;;;;;;;15.07;13.53;;;;;;;14.02;100.00;96710.38;7398184;19;20395;-92
2023/07/09 03:58:48;;;;;;;14.37;12.97;;;;;;;13.50;100.00;96628.06;7394625;19;20961;-92
2023/07/09 04:01:16;;;;;;;14.23;11.80;;;;;;;13.22;100.00;96615.50;7398212;19;20391;-91
2023/07/09 04:03:43;;;;;;;14.80;10.97;;;;;;;14.07;100.00;96728.72;7394016;19;20374;-92
2023/07/09 04:06:10;;;;;;;14.50;10.67;;;;;;;13.78;100.00;96638.69;7397341;19;20734;-91
2023/07/09 04:08:37;;;;;;;17.13;12.93;;;;;;;13.44;100.00;96547.81;7394908;19;20959;-92
2023/07/09 04:11:05;;;;;;;13.83;11.17;;;;;;;14.35;100.00;96659.56;7397952;19;20375;-91
2023/07/09 04:13:32;;;;;;;14.13;11.47;;;;;;;14.04;100.00;96612.41;7396356;19;20798;-91
2023/07/09 04:16:00;;;;;;;13.67;11.13;;;;;;;15.06;100.00;96743.03;7394161;19;20407;-91
2023/07/09 04:18:27;;;;;;;22.93;11.97;;;;;;;14.39;100.00;96670.28;7393375;19;20399;-92
2023/07/09 04:20:54;;;;;;;17.03;11.03;;;;;;;13.97;100.00;96577.66;7397792;19;20339;-92
2023/07/09 04:23:21;;;;;;;15.13;11.87;;;;;;;13.90;100.00;96553.56;7396363;19;20888;-91
2023/07/09 04:25:48;;;;;;;14.40;11.17;;;;;;;14.91;100.00;96690.56;7397225;19;20759;-91
2023/07/09 04:28:15;;;;;;;19.63;12.10;;;;;;;14.48;100.00;96645.09;7400592;19;20423;-92
2023/07/09 04:30:50;;;;;;;19.80;13.23;;;;;;;15.34;100.00;96754.38;7404993;19;20925;-91
2023/07/09 04:33:19;;;;;;;13.10;11.80;;;;;;;14.42;100.00;96616.38;7402943;19;20387;-91
2023/07/09 04:35:47;;;;;;;16.37;13.60;;;;;;;14.36;100.00;96645.13;7401224;19;20451;-90
2023/07/09 04:38:15;;;;;;;18.07;12.40;;;;;;;14.55;100.00;96695.03;7399098;19;20392;-90
2023/07/09 04:40:43;;;;;;;14.17;12.77;;;;;;;14.75;100.00;96720.63;7401728;19;20436;-91
2023/07/09 04:43:10;;;;;;;15.83;13.50;;;;;;;14.73;100.00;96674.97;7401100;19;20367;-91
2023/07/09 04:45:37;;;;;;;18.10;13.67;;;;;;;15.03;100.00;96687.81;7415768;19;20382;-90
2023/07/09 04:48:05;;;;;;;15.53;13.13;;;;;;;15.73;100.00;96753.72;7426958;19;20429;-91
2023/07/09 04:50:32;;;;;;;13.57;11.93;;;;;;;15.50;100.00;96729.59;7429662;19;20622;-91
2023/07/09 04:52:59;;;;;;;15.57;13.20;;;;;;;15.41;100.00;96735.13;7428959;19;20396;-91
2023/07/09 04:55:26;;;;;;;14.63;12.47;;;;;;;15.69;100.00;96745.66;7424472;19;20395;-90
2023/07/09 04:57:53;;;;;;;13.73;12.23;;;;;;;15.95;100.00;96737.81;7405679;19;20435;-91
2023/07/09 05:00:21;;;;;;;13.67;12.37;;;;;;;16.04;100.00;96768.84;7402262;19;20394;-90
2023/07/09 05:02:47;;;;;;;16.17;12.17;;;;;;;15.76;100.00;96711.16;7404811;19;20362;-91
2023/07/09 05:05:15;;;;;;;11.90;10.70;;;;;;;15.70;100.00;96714.44;7399971;19;20349;-90
2023/07/09 05:07:42;;;;;;;13.43;12.00;;;;;;;15.75;100.00;96698.13;7402432;19;20442;-92
2023/07/09 05:10:09;;;;;;;14.00;12.63;;;;;;;14.83;100.00;96529.16;7401894;19;20741;-91
2023/07/09 05:12:48;;;;;;;13.37;11.97;;;;;;;16.76;100.00;96777.88;7403686;19;20950;-90
2023/07/09 05:15:15;;;;;;;13.93;12.27;;;;;;;16.89;100.00;96783.06;7399940;19;20368;-91
2023/07/09 05:17:42;;;;;;;13.90;12.60;;;;;;;16.60;100.00;96720.34;7402681;19;20436;-91
2023/07/09 05:20:10;;;;;;;14.33;12.60;;;;;;;16.91;100.00;96746.06;7403485;19;20354;-91
2023/07/09 05:22:37;;;;;;;14.67;12.10;;;;;;;16.72;100.00;96698.84;7405166;19;20386;-90
2023/07/09 05:25:04;;;;;;;16.37;14.30;;;;;;;16.65;100.00;96647.94;7399899;19;20372;-91
2023/07/09 05:27:31;;;;;;;13.70;12.30;;;;;;;16.99;100.00;96708.44;7403438;19;20423;-91
2023/07/09 05:29:58;;;;;;;13.90;12.53;;;;;;;17.23;100.00;96735.88;7399607;19;20378;-91
2023/07/09 05:32:25;;;;;;;19.73;13.07;;;;;;;16.97;100.00;96717.94;7399137;19;20356;-91
2023/07/09 05:34:52;;;;;;;12.83;11.53;;;;;;;17.44;100.00;96787.00;7397114;19;20374;-91
2023/07/09 05:37:19;;;;;;;14.50;13.00;;;;;;;17.22;100.00;96763.72;7401934;19;20778;-91
2023/07/09 05:39:46;;;;;;;14.93;13.37;;;;;;;17.58;100.00;96779.19;7399042;19;20353;-90
2023/07/09 05:42:13;;;;;;;16.13;12.30;;;;;;;17.62;100.00;96792.59;7402934;19;20416;-91
2023/07/09 05:44:40;;;;;;;13.80;12.37;;;;;;;16.96;100.00;96721.72;7398951;19;20726;-91
2023/07/09 05:47:07;;;;;;;14.23;13.07;;;;;;;17.17;100.00;96707.94;7402599;19;20511;-91
2023/07/09 05:49:34;;;;;;;13.53;12.33;;;;;;;17.00;100.00;96642.41;7397615;19;20386;-91
2023/07/09 05:52:01;;;;;;;15.53;11.23;;;;;;;18.10;100.00;96769.59;7427186;19;20395;-92
2023/07/09 05:54:28;;;;;;;14.43;10.43;;;;;;;18.45;100.00;96797.94;7427325;19;20438;-92
2023/07/09 05:56:55;;;;;;;12.17;11.10;;;;;;;17.82;100.00;96668.34;7403046;19;20432;-91
2023/07/09 05:59:22;;;;;;;12.53;11.33;;;;;;;18.39;100.00;96701.06;7399172;19;20388;-91
2023/07/09 06:01:50;;;;;;;12.83;11.50;;;;;;;18.37;100.00;96662.41;7398983;19;20403;-91
2023/07/09 06:04:17;;;;;;;11.73;10.63;;;;;;;19.61;100.00;96797.47;7404028;19;20391;-91
2023/07/09 06:06:51;;;;;;;11.70;10.70;;;;;;;19.22;100.00;96703.31;7406781;19;20389;-91
2023/07/09 06:09:18;;;;;;;10.30;9.37;;;;;;;19.99;100.00;96796.19;7408021;19;20389;-91
2023/07/09 06:11:45;;;;;;;10.70;9.73;;;;;;;18.42;96.27;96563.00;7401328;19;20386;-91
2023/07/09 06:14:12;;;;;;;12.20;10.90;;;;;;;19.82;96.67;96750.47;7397167;19;20373;-91
2023/07/09 06:16:39;;;;;;;10.53;9.47;;;;;;;19.37;91.74;96645.97;7399566;19;20379;-91
2023/07/09 06:19:06;;;;;;;11.70;10.50;;;;;;;18.80;90.11;96583.97;7395906;19;20969;-92
2023/07/09 06:21:33;;;;;;;11.60;10.50;;;;;;;20.39;89.26;96799.81;7397121;19;21199;-90
2023/07/09 06:24:00;;;;;;;10.70;9.70;;;;;;;19.33;87.96;96602.25;7398172;19;20379;-91
2023/07/09 06:26:27;;;;;;;11.53;10.43;;;;;;;19.90;85.02;96715.25;7405720;19;20391;-91
2023/07/09 06:28:54;;;;;;;10.23;9.33;;;;;;;20.55;84.28;96754.59;7398010;19;20423;-91
2023/07/09 06:31:21;;;;;;;11.20;10.30;;;;;;;19.52;85.10;96628.03;7404702;19;20390;-91
2023/07/09 06:33:48;;;;;;;9.50;8.80;;;;;;;20.44;84.19;96699.31;7406689;19;20402;-91
2023/07/09 06:36:15;;;;;;;12.10;10.27;;;;;;;20.69;83.42;96731.59;7396559;19;20362;-91
2023/07/09 06:38:42;;;;;;;10.60;9.63;;;;;;;21.20;84.05;96758.13;7394896;19;20973;-91
2023/07/09 06:41:09;;;;;;;10.67;9.73;;;;;;;21.80;84.08;96817.31;7397399;19;20930;-91
2023/07/09 06:43:39;;;;;;;11.77;10.47;;;;;;;21.90;82.53;96759.19;7401679;19;20394;-91
2023/07/09 06:46:10;;;;;;;11.07;10.07;;;;;;;21.83;81.22;96741.16;7401591;19;20398;-91
2023/07/09 06:48:38;;;;;;;11.23;9.80;;;;;;;21.86;81.25;96723.44;7395042;19;20440;-92
2023/07/09 06:51:05;;;;;;;11.50;10.30;;;;;;;22.69;80.46;96829.75;7404638;19;20378;-88
2023/07/09 06:53:32;;;;;;;10.10;9.10;;;;;;;22.27;79.23;96712.13;7408578;19;20388;-90
2023/07/09 06:56:00;;;;;;;12.00;10.07;;;;;;;22.94;79.07;96789.19;7401430;19;20398;-90
2023/07/09 06:58:31;;;;;;;12.10;11.10;;;;;;;23.17;78.88;96821.03;7401495;19;20409;-89
2023/07/09 07:01:03;;;;;;;11.13;10.03;;;;;;;23.68;76.30;96827.59;7400266;19;20472;-89
2023/07/09 07:03:32;;;;;;;11.97;9.80;;;;;;;22.76;76.59;96672.56;7398078;19;20392;-90
2023/07/09 07:05:59;;;;;;;11.20;10.20;;;;;;;23.86;75.68;96828.19;7407942;19;20857;-90
2023/07/09 07:08:26;;;;;;;11.30;10.30;;;;;;;23.98;75.18;96818.81;7396315;19;20975;-90
2023/07/09 07:11:02;;;;;;;10.87;9.77;;;;;;;23.85;75.61;96795.00;7399282;19;20376;-90
2023/07/09 07:13:34;;;;;;;10.87;9.97;;;;;;;24.18;74.32;96815.13;7398702;19;20357;-90
2023/07/09 07:16:04;;;;;;;11.57;10.70;;;;;;;24.34;72.70;96825.38;7397306;19;20371;-90
2023/07/09 07:18:31;;;;;;;9.90;9.10;;;;;;;24.52;72.69;96819.75;7395902;19;20394;-90
2023/07/09 07:20:59;;;;;;;10.20;9.37;;;;;;;24.02;73.47;96712.22;7396307;19;20434;-90
2023/07/09 07:23:26;;;;;;;11.00;10.10;;;;;;;24.14;73.53;96767.66;7400577;19;20406;-89
2023/07/09 07:25:54;;;;;;;10.70;9.87;;;;;;;24.52;72.82;96765.66;7422727;19;20405;-89
2023/07/09 07:28:21;;;;;;;9.23;8.43;;;;;;;24.99;71.62;96822.63;7419493;19;20398;-89
2023/07/09 07:31:09;;;;;;;10.50;9.60;;;;;;;25.11;72.31;96789.59;7421725;19;20413;-90
2023/07/09 07:33:37;;;;;;;10.07;9.03;;;;;;;25.46;70.79;96815.34;7422071;19;20378;-90
2023/07/09 07:36:05;;;;;;;10.07;9.03;;;;;;;25.46;70.36;96806.44;7413666;19;20462;-90
2023/07/09 07:38:52;;;;;;;16.03;10.07;;;;;;;25.52;68.92;96824.53;7400101;19;20940;-90
2023/07/09 07:41:19;;;;;;;10.77;9.87;;;;;;;25.77;69.34;96813.28;7400411;19;20702;-89
2023/07/09 07:43:46;;;;;;;9.03;8.20;;;;;;;26.12;68.58;96808.41;7401972;19;20407;-90
2023/07/09 07:46:13;;;;;;;9.60;8.87;;;;;;;25.95;67.63;96774.28;7400063;19;20375;-90
2023/07/09 07:48:40;;;;;;;14.50;9.37;;;;;;;25.51;67.50;96784.31;7399999;19;20849;-90
2023/07/09 07:51:07;;;;;;;10.67;9.73;;;;;;;25.64;67.81;96798.78;7398992;19;20430;-90
2023/07/09 07:53:34;;;;;;;11.20;10.30;;;;;;;26.33;67.42;96796.38;7402822;19;20403;-88
2023/07/09 07:56:04;;;;;;;10.00;9.20;;;;;;;26.48;67.13;96795.69;7401144;19;20383;-89
2023/07/09 07:58:32;;;;;;;8.20;7.50;;;;;;;26.32;66.64;96765.78;7403517;19;20953;-88
2023/07/09 08:00:59;;;;;;;11.20;9.40;;;;;;;26.67;64.46;96812.34;7403934;19;20370;-87
2023/07/09 08:03:27;;;;;;;9.30;8.50;;;;;;;27.23;64.57;96823.16;7402013;19;20923;-87
2023/07/09 08:05:54;;;;;;;10.00;9.20;;;;;;;27.17;63.55;96803.91;7400103;19;20394;-87
2023/07/09 08:08:21;;;;;;;11.37;10.37;;;;;;;26.62;63.97;96721.38;7397819;19;20423;-90
2023/07/09 08:10:50;;;;;;;10.20;9.20;;;;;;;27.23;64.20;96788.63;7401966;19;20399;-88
2023/07/09 08:13:17;;;;;;;9.67;8.70;;;;;;;26.76;63.83;96740.03;7397275;19;20893;-87
2023/07/09 08:15:45;;;;;;;10.00;9.00;;;;;;;27.66;65.91;96833.81;7398815;19;20352;-88
2023/07/09 08:18:13;;;;;;;10.17;9.27;;;;;;;27.49;63.04;96767.78;7397894;19;20427;-88
2023/07/09 08:20:44;;;;;;;10.07;9.10;;;;;;;27.53;63.94;96775.88;7401511;19;20381;-88
2023/07/09 08:23:11;;;;;;;8.70;7.80;;;;;;;27.70;62.88;96776.63;7396650;19;20349;-88
2023/07/09 08:25:38;;;;;;;9.73;8.93;;;;;;;28.23;61.45;96795.00;7401910;19;20985;-87
2023/07/09 08:28:06;;;;;;;9.07;8.17;;;;;;;27.68;61.06;96696.28;7396201;19;20412;-87
2023/07/09 08:30:33;;;;;;;13.30;8.63;;;;;;;27.97;60.07;96775.13;7402240;19;20471;-88
2023/07/09 08:33:00;;;;;;;9.50;8.50;;;;;;;28.69;60.10;96801.09;7396521;19;20403;-88
2023/07/09 08:35:27;;;;;;;9.93;7.63;;;;;;;28.57;59.17;96782.78;7397831;19;20396;-88
2023/07/09 08:38:02;;;;;;;9.10;8.30;;;;;;;28.68;58.69;96805.00;7395192;19;20393;-88
2023/07/09 08:40:29;;;;;;;10.40;8.87;;;;;;;28.97;60.08;96815.06;7393848;19;20357;-87
2023/07/09 08:43:08;;;;;;;9.70;8.50;;;;;;;29.24;58.76;96804.47;7401736;19;20419;-89
2023/07/09 08:45:41;;;;;;;7.90;7.30;;;;;;;29.21;58.46;96821.69;7424587;19;20376;-88
2023/07/09 08:48:30;;;;;;;7.83;7.13;;;;;;;28.81;58.72;96792.16;7414300;19;20456;-88
2023/07/09 08:51:03;;;;;;;8.67;7.77;;;;;;;28.61;56.69;96764.41;7398215;19;20365;-88
2023/07/09 08:53:50;;;;;;;7.93;7.23;;;;;;;29.07;57.57;96778.56;7401239;19;20931;-88
2023/07/09 08:56:19;;;;;;;9.17;7.47;;;;;;;29.54;57.37;96805.88;7396034;19;20353;-90
2023/07/09 08:58:48;;;;;;;8.73;7.37;;;;;;;29.54;56.81;96819.53;7396274;19;20422;-90
2023/07/09 09:01:22;;;;;;;8.43;7.70;;;;;;;28.65;56.40;96693.50;7400269;19;20360;-92
2023/07/09 09:03:58;;;;;;;8.17;7.40;;;;;;;29.99;55.16;96823.84;7413569;19;20368;-89
2023/07/09 09:06:29;;;;;;;7.50;6.90;;;;;;;28.93;55.89;96760.72;7425682;19;20348;-89
2023/07/09 09:09:02;;;;;;;6.87;6.27;;;;;;;29.74;54.84;96821.97;7422362;19;20435;-89
2023/07/09 09:11:33;;;;;;;7.47;6.77;;;;;;;29.91;56.05;96825.28;7409857;19;20385;-90
2023/07/09 09:14:07;;;;;;;7.10;6.50;;;;;;;30.08;56.23;96812.28;7424634;19;20364;-90
2023/07/09 09:16:39;;;;;;;6.33;5.53;;;;;;;29.93;53.96;96790.94;7400271;19;20352;-90
2023/07/09 09:19:37;;;;;;;6.20;5.47;;;;;;;30.02;53.65;96780.06;7402515;19;20392;-90
2023/07/09 09:22:18;;;;;;;6.43;5.83;;;;;;;30.25;52.54;96824.53;7405353;19;20428;-91
2023/07/09 09:25:04;;;;;;;6.20;5.60;;;;;;;30.46;52.38;96826.50;7402116;19;20388;-90
2023/07/09 09:27:31;;;;;;;6.20;5.20;;;;;;;30.33;52.74;96828.53;7404888;19;20970;-90
2023/07/09 09:29:58;;;;;;;6.13;5.53;;;;;;;30.47;52.60;96806.19;7401320;19;20387;-90
2023/07/09 09:32:30;;;;;;;5.73;5.30;;;;;;;30.53;51.29;96831.69;7407519;19;20337;-91
2023/07/09 09:34:57;;;;;;;6.73;5.23;;;;;;;29.86;52.80;96727.69;7401432;19;20412;-90
2023/07/09 09:37:30;;;;;;;5.10;4.60;;;;;;;30.74;52.08;96830.16;7403695;19;20408;-90
2023/07/09 09:39:59;;;;;;;5.67;5.10;;;;;;;30.78;50.27;96810.91;7406251;19;20392;-88
2023/07/09 09:42:29;;;;;;;5.63;5.13;;;;;;;31.20;50.17;96827.66;7434991;19;20381;-89
2023/07/09 09:44:56;;;;;;;7.27;6.00;;;;;;;30.85;49.92;96799.69;7428743;19;20468;-90
2023/07/09 09:47:27;;;;;;;7.33;4.40;;;;;;;30.72;49.85;96783.44;7404691;19;20468;-87
2023/07/09 09:49:55;;;;;;;6.00;4.60;;;;;;;31.08;49.54;96799.19;7406721;19;20380;-88
2023/07/09 09:52:32;;;;;;;4.40;4.00;;;;;;;30.28;46.07;96788.91;7403329;19;20368;-88
2023/07/09 09:55:09;;;;;;;6.00;5.40;;;;;;;30.71;46.30;96822.84;7405481;19;20742;-88
2023/07/09 09:57:36;;;;;;;12.53;6.40;;;;;;;30.68;45.33;96784.75;7399427;19;20423;-89
2023/07/09 10:00:06;;;;;;;5.47;4.97;;;;;;;31.38;47.03;96821.47;7403773;19;20365;-90
2023/07/09 10:02:42;;;;;;;6.20;5.60;;;;;;;30.87;45.27;96824.63;7404927;19;20361;-90
2023/07/09 10:05:20;;;;;;;5.77;5.27;;;;;;;31.29;45.78;96835.13;7399487;19;20950;-90
2023/07/09 10:08:02;;;;;;;6.30;5.30;;;;;;;31.29;45.91;96808.53;7400434;19;20383;-90
2023/07/09 10:10:32;;;;;;;8.00;6.10;;;;;;;31.54;44.34;96832.16;7400845;19;20384;-90
2023/07/09 10:13:28;;;;;;;6.90;6.20;;;;;;;31.82;44.91;96832.22;7401654;19;20393;-90
2023/07/09 10:16:25;;;;;;;5.50;5.00;;;;;;;31.46;44.43;96833.63;7398774;19;20405;-90
2023/07/09 10:19:04;;;;;;;6.67;5.97;;;;;;;31.05;43.63;96832.88;7397693;19;20420;-90
2023/07/09 10:21:40;;;;;;;6.93;6.30;;;;;;;31.26;43.67;96806.72;7399050;19;20923;-90
2023/07/09 10:24:10;;;;;;;5.87;5.37;;;;;;;31.77;44.51;96833.56;7398324;19;20404;-90
2023/07/09 10:26:59;;;;;;;5.90;5.37;;;;;;;32.04;42.38;96828.09;7399494;19;20384;-90
2023/07/09 10:29:35;;;;;;;9.33;5.40;;;;;;;31.66;41.96;96835.97;7398802;19;20383;-90
2023/07/09 10:32:23;;;;;;;10.10;6.20;;;;;;;31.21;42.34;96804.56;7397237;19;20771;-90
2023/07/09 10:35:00;;;;;;;6.17;5.60;;;;;;;31.83;42.07;96820.81;7399142;19;20380;-90
2023/07/09 10:37:46;;;;;;;6.63;5.83;;;;;;;32.15;42.84;96819.44;7425055;19;20432;-90
2023/07/09 10:40:17;;;;;;;7.00;5.40;;;;;;;32.38;42.59;96812.59;7428480;19;20394;-90
2023/07/09 10:42:48;;;;;;;8.90;6.13;;;;;;;32.55;41.81;96823.97;7426403;19;20395;-90
2023/07/09 10:45:23;;;;;;;6.80;6.07;;;;;;;32.26;42.44;96818.97;7426920;19;20375;-90
2023/07/09 10:47:58;;;;;;;5.50;5.00;;;;;;;31.43;43.94;96750.56;7425638;19;20412;-90
2023/07/09 10:50:35;;;;;;;6.00;5.40;;;;;;;31.79;44.83;96813.94;7404649;19;20397;-91
2023/07/09 10:53:16;;;;;;;6.83;6.23;;;;;;;32.45;43.46;96806.78;7397666;19;20377;-88
2023/07/09 10:56:03;;;;;;;9.10;6.67;;;;;;;32.03;40.20;96791.00;7400625;19;20404;-88
2023/07/09 10:58:35;;;;;;;7.27;6.67;;;;;;;32.42;39.91;96818.66;7399996;19;20416;-89
2023/07/09 11:01:03;;;;;;;8.53;6.43;;;;;;;32.51;39.72;96772.09;7401254;19;20404;-87
2023/07/09 11:03:43;;;;;;;6.70;6.10;;;;;;;32.34;37.62;96807.28;7397137;19;20373;-89
2023/07/09 11:06:44;;;;;;;8.13;7.30;;;;;;;31.66;40.25;96749.22;7400117;19;20447;-88
2023/07/09 11:09:26;;;;;;;8.50;6.90;;;;;;;31.58;39.69;96763.63;7398202;19;20412;-88
2023/07/09 11:11:56;;;;;;;6.83;6.13;;;;;;;31.75;40.14;96787.50;7399305;19;20372;-88
2023/07/09 11:14:41;;;;;;;9.70;6.97;;;;;;;31.38;41.19;96762.06;7398216;19;20365;-88
2023/07/09 11:17:15;;;;;;;6.60;6.00;;;;;;;31.08;42.71;96774.59;7398353;19;20357;-88
2023/07/09 11:19:47;;;;;;;7.23;6.53;;;;;;;30.42;43.15;96735.00;7398436;19;20356;-87
2023/07/09 11:22:20;;;;;;;5.70;5.20;;;;;;;31.64;42.63;96789.91;7400340;19;20387;-88
2023/07/09 11:24:50;;;;;;;7.00;6.40;;;;;;;31.61;42.14;96768.94;7398183;19;20460;-90
2023/07/09 11:27:21;;;;;;;6.80;6.10;;;;;;;31.35;43.34;96740.38;7400437;19;20408;-91
2023/07/09 11:29:57;;;;;;;6.97;6.37;;;;;;;31.99;41.68;96775.97;7398892;19;20397;-88
2023/07/09 11:32:24;;;;;;;7.57;5.90;;;;;;;32.76;41.57;96743.56;7400771;19;20373;-88
2023/07/09 11:34:51;;;;;;;5.90;5.30;;;;;;;33.69;40.92;96785.72;7398753;19;20912;-90